sensor_id;sensor_type;location;lat;lon;timestamp;temperature;humidity
7163;DHT22;3623;47.098;15.446;2022-10-16T00:01:08;10.80;99.90
7163;DHT22;3623;47.098;15.446;2022-10-16T00:03:37;10.80;99.90
7163;DHT22;3623;47.098;15.446;2022-10-16T00:06:05;10.80;99.90
7163;DHT22;3623;47.098;15.446;2022-10-16T00:08:35;10.80;99.90
7163;DHT22;3623;47.098;15.446;2022-10-16T00:11:04;10.90;99.90
7163;DHT22;3623;47.098;15.446;2022-10-16T00:13:34;10.90;99.90
7163;DHT22;3623;47.098;15.446;2022-10-16T00:16:02;10.90;99.90
7163;DHT22;3623;47.098;15.446;2022-10-16T00:18:30;10.90;99.90
7163;DHT22;3623;47.098;15.446;2022-10-16T00:21:02;11.00;99.90
7163;DHT22;3623;47.098;15.446;2022-10-16T00:23:29;11.00;99.90
7163;DHT22;3623;47.098;15.446;2022-10-16T00:26:00;11.10;99.90
7163;DHT22;3623;47.098;15.446;2022-10-16T00:28:29;11.10;99.90
7163;DHT22;3623;47.098;15.446;2022-10-16T00:30:56;11.10;99.90
7163;DHT22;3623;47.098;15.446;2022-10-16T00:33:24;11.10;99.90
7163;DHT22;3623;47.098;15.446;2022-10-16T00:35:51;11.10;99.90
7163;DHT22;3623;47.098;15.446;2022-10-16T00:38:18;11.10;99.90
7163;DHT22;3623;47.098;15.446;2022-10-16T00:40:45;11.10;99.90
7163;DHT22;3623;47.098;15.446;2022-10-16T00:45:57;11.20;99.90
7163;DHT22;3623;47.098;15.446;2022-10-16T00:48:24;11.20;99.90
7163;DHT22;3623;47.098;15.446;2022-10-16T00:50:52;11.10;99.90
7163;DHT22;3623;47.098;15.446;2022-10-16T00:53:19;11.10;99.90
7163;DHT22;3623;47.098;15.446;2022-10-16T00:55:46;11.10;99.90
7163;DHT22;3623;47.098;15.446;2022-10-16T00:58:15;11.10;99.90
7163;DHT22;3623;47.098;15.446;2022-10-16T01:00:42;11.10;99.90
7163;DHT22;3623;47.098;15.446;2022-10-16T01:03:24;11.10;99.90
7163;DHT22;3623;47.098;15.446;2022-10-16T01:05:58;11.00;99.90
7163;DHT22;3623;47.098;15.446;2022-10-16T01:08:36;11.00;99.90
7163;DHT22;3623;47.098;15.446;2022-10-16T01:11:10;11.00;99.90
7163;DHT22;3623;47.098;15.446;2022-10-16T01:13:46;10.90;99.90
7163;DHT22;3623;47.098;15.446;2022-10-16T01:16:18;10.90;99.90
7163;DHT22;3623;47.098;15.446;2022-10-16T01:18:50;10.90;99.90
7163;DHT22;3623;47.098;15.446;2022-10-16T01:21:24;10.90;99.90
7163;DHT22;3623;47.098;15.446;2022-10-16T01:24:01;10.90;99.90
7163;DHT22;3623;47.098;15.446;2022-10-16T01:26:49;10.90;99.90
7163;DHT22;3623;47.098;15.446;2022-10-16T01:29:23;10.90;99.90
7163;DHT22;3623;47.098;15.446;2022-10-16T01:31:56;10.90;99.90
7163;DHT22;3623;47.098;15.446;2022-10-16T01:34:28;10.90;99.90
7163;DHT22;3623;47.098;15.446;2022-10-16T01:37:02;11.00;99.90
7163;DHT22;3623;47.098;15.446;2022-10-16T01:39:34;10.90;99.90
7163;DHT22;3623;47.098;15.446;2022-10-16T01:42:08;10.90;99.90
7163;DHT22;3623;47.098;15.446;2022-10-16T01:44:38;10.90;99.90
7163;DHT22;3623;47.098;15.446;2022-10-16T01:47:09;11.00;99.90
7163;DHT22;3623;47.098;15.446;2022-10-16T01:49:38;11.00;99.90
7163;DHT22;3623;47.098;15.446;2022-10-16T01:52:09;11.00;99.90
7163;DHT22;3623;47.098;15.446;2022-10-16T01:54:41;11.10;99.90
7163;DHT22;3623;47.098;15.446;2022-10-16T01:57:12;11.10;99.90
7163;DHT22;3623;47.098;15.446;2022-10-16T01:59:44;11.10;99.90
7163;DHT22;3623;47.098;15.446;2022-10-16T02:02:15;11.10;99.90
7163;DHT22;3623;47.098;15.446;2022-10-16T02:04:46;11.10;99.90
7163;DHT22;3623;47.098;15.446;2022-10-16T02:07:13;11.10;99.90
7163;DHT22;3623;47.098;15.446;2022-10-16T02:09:40;11.10;99.90
7163;DHT22;3623;47.098;15.446;2022-10-16T02:12:13;11.10;99.90
7163;DHT22;3623;47.098;15.446;2022-10-16T02:14:43;11.10;99.90
7163;DHT22;3623;47.098;15.446;2022-10-16T02:17:12;11.10;99.90
7163;DHT22;3623;47.098;15.446;2022-10-16T02:19:40;11.10;99.90
7163;DHT22;3623;47.098;15.446;2022-10-16T02:22:10;11.20;99.90
7163;DHT22;3623;47.098;15.446;2022-10-16T02:24:48;11.20;99.90
7163;DHT22;3623;47.098;15.446;2022-10-16T02:27:22;11.20;99.90
7163;DHT22;3623;47.098;15.446;2022-10-16T02:29:56;11.20;99.90
7163;DHT22;3623;47.098;15.446;2022-10-16T02:32:30;11.20;99.90
7163;DHT22;3623;47.098;15.446;2022-10-16T02:34:59;11.20;99.90
7163;DHT22;3623;47.098;15.446;2022-10-16T02:37:27;11.10;99.90
7163;DHT22;3623;47.098;15.446;2022-10-16T02:39:56;11.10;99.90
7163;DHT22;3623;47.098;15.446;2022-10-16T02:42:28;11.10;99.90
7163;DHT22;3623;47.098;15.446;2022-10-16T02:44:57;11.00;99.90
7163;DHT22;3623;47.098;15.446;2022-10-16T02:47:25;10.90;99.90
7163;DHT22;3623;47.098;15.446;2022-10-16T02:49:52;11.00;99.90
7163;DHT22;3623;47.098;15.446;2022-10-16T02:52:19;11.00;99.90
7163;DHT22;3623;47.098;15.446;2022-10-16T02:54:46;10.80;99.90
7163;DHT22;3623;47.098;15.446;2022-10-16T02:57:13;10.70;99.90
7163;DHT22;3623;47.098;15.446;2022-10-16T02:59:41;10.60;99.90
7163;DHT22;3623;47.098;15.446;2022-10-16T03:02:09;10.60;99.90
7163;DHT22;3623;47.098;15.446;2022-10-16T03:04:37;10.60;99.90
7163;DHT22;3623;47.098;15.446;2022-10-16T03:07:04;10.50;99.90
7163;DHT22;3623;47.098;15.446;2022-10-16T03:09:31;10.50;99.90
7163;DHT22;3623;47.098;15.446;2022-10-16T03:11:58;10.50;99.90
7163;DHT22;3623;47.098;15.446;2022-10-16T03:14:25;10.50;99.90
7163;DHT22;3623;47.098;15.446;2022-10-16T03:16:52;10.50;99.90
7163;DHT22;3623;47.098;15.446;2022-10-16T03:19:21;10.50;99.90
7163;DHT22;3623;47.098;15.446;2022-10-16T03:21:48;10.50;99.90
7163;DHT22;3623;47.098;15.446;2022-10-16T03:24:15;10.50;99.90
7163;DHT22;3623;47.098;15.446;2022-10-16T03:26:42;10.50;99.90
7163;DHT22;3623;47.098;15.446;2022-10-16T03:29:09;10.50;99.90
7163;DHT22;3623;47.098;15.446;2022-10-16T03:31:36;10.50;99.90
7163;DHT22;3623;47.098;15.446;2022-10-16T03:34:04;10.50;99.90
7163;DHT22;3623;47.098;15.446;2022-10-16T03:36:32;10.60;99.90
7163;DHT22;3623;47.098;15.446;2022-10-16T03:38:59;10.60;99.90
7163;DHT22;3623;47.098;15.446;2022-10-16T03:41:26;10.60;99.90
7163;DHT22;3623;47.098;15.446;2022-10-16T03:43:53;10.70;99.90
7163;DHT22;3623;47.098;15.446;2022-10-16T03:46:20;10.70;99.90
7163;DHT22;3623;47.098;15.446;2022-10-16T03:48:47;10.80;99.90
7163;DHT22;3623;47.098;15.446;2022-10-16T03:51:15;10.80;99.90
7163;DHT22;3623;47.098;15.446;2022-10-16T03:53:43;10.80;99.90
7163;DHT22;3623;47.098;15.446;2022-10-16T03:56:10;10.80;99.90
7163;DHT22;3623;47.098;15.446;2022-10-16T03:58:37;10.80;99.90
7163;DHT22;3623;47.098;15.446;2022-10-16T04:01:05;10.90;99.90
7163;DHT22;3623;47.098;15.446;2022-10-16T04:03:32;10.90;99.90
7163;DHT22;3623;47.098;15.446;2022-10-16T04:05:59;11.00;99.90
7163;DHT22;3623;47.098;15.446;2022-10-16T04:08:26;11.00;99.90
7163;DHT22;3623;47.098;15.446;2022-10-16T04:10:54;11.10;99.90
7163;DHT22;3623;47.098;15.446;2022-10-16T04:13:22;11.10;99.90
7163;DHT22;3623;47.098;15.446;2022-10-16T04:15:49;11.10;99.90
7163;DHT22;3623;47.098;15.446;2022-10-16T04:18:16;11.10;99.90
7163;DHT22;3623;47.098;15.446;2022-10-16T04:20:43;11.10;99.90
7163;DHT22;3623;47.098;15.446;2022-10-16T04:23:10;11.10;99.90
7163;DHT22;3623;47.098;15.446;2022-10-16T04:25:37;11.20;99.90
7163;DHT22;3623;47.098;15.446;2022-10-16T04:28:05;11.10;99.90
7163;DHT22;3623;47.098;15.446;2022-10-16T04:30:33;11.10;99.90
7163;DHT22;3623;47.098;15.446;2022-10-16T04:33:00;11.10;99.90
7163;DHT22;3623;47.098;15.446;2022-10-16T04:35:27;11.10;99.90
7163;DHT22;3623;47.098;15.446;2022-10-16T04:37:56;11.10;99.90
7163;DHT22;3623;47.098;15.446;2022-10-16T04:40:24;11.10;99.90
7163;DHT22;3623;47.098;15.446;2022-10-16T04:42:51;11.10;99.90
7163;DHT22;3623;47.098;15.446;2022-10-16T04:45:20;11.10;99.90
7163;DHT22;3623;47.098;15.446;2022-10-16T04:47:48;11.10;99.90
7163;DHT22;3623;47.098;15.446;2022-10-16T04:50:15;11.10;99.90
7163;DHT22;3623;47.098;15.446;2022-10-16T04:52:42;11.10;99.90
7163;DHT22;3623;47.098;15.446;2022-10-16T04:55:10;11.10;99.90
7163;DHT22;3623;47.098;15.446;2022-10-16T04:57:37;11.10;99.90
7163;DHT22;3623;47.098;15.446;2022-10-16T05:00:05;11.00;99.90
7163;DHT22;3623;47.098;15.446;2022-10-16T05:02:35;11.00;99.90
7163;DHT22;3623;47.098;15.446;2022-10-16T05:05:02;11.00;99.90
7163;DHT22;3623;47.098;15.446;2022-10-16T05:07:29;11.10;99.90
7163;DHT22;3623;47.098;15.446;2022-10-16T05:09:56;11.10;99.90
7163;DHT22;3623;47.098;15.446;2022-10-16T05:12:23;11.00;99.90
7163;DHT22;3623;47.098;15.446;2022-10-16T05:14:50;11.00;99.90
7163;DHT22;3623;47.098;15.446;2022-10-16T05:17:18;11.10;99.90
7163;DHT22;3623;47.098;15.446;2022-10-16T05:19:46;11.10;99.90
7163;DHT22;3623;47.098;15.446;2022-10-16T05:22:13;11.10;99.90
7163;DHT22;3623;47.098;15.446;2022-10-16T05:24:40;11.10;99.90
7163;DHT22;3623;47.098;15.446;2022-10-16T05:27:07;11.10;99.90
7163;DHT22;3623;47.098;15.446;2022-10-16T05:29:34;11.10;99.90
7163;DHT22;3623;47.098;15.446;2022-10-16T05:32:01;11.10;99.90
7163;DHT22;3623;47.098;15.446;2022-10-16T05:34:29;11.20;99.90
7163;DHT22;3623;47.098;15.446;2022-10-16T05:36:57;11.20;99.90
7163;DHT22;3623;47.098;15.446;2022-10-16T05:39:24;11.20;99.90
7163;DHT22;3623;47.098;15.446;2022-10-16T05:41:51;11.30;99.90
7163;DHT22;3623;47.098;15.446;2022-10-16T05:44:18;11.20;99.90
7163;DHT22;3623;47.098;15.446;2022-10-16T05:46:46;11.20;99.90
7163;DHT22;3623;47.098;15.446;2022-10-16T05:49:13;11.10;99.90
7163;DHT22;3623;47.098;15.446;2022-10-16T05:51:40;11.00;99.90
7163;DHT22;3623;47.098;15.446;2022-10-16T05:54:09;10.90;99.90
7163;DHT22;3623;47.098;15.446;2022-10-16T05:56:36;10.70;99.90
7163;DHT22;3623;47.098;15.446;2022-10-16T05:59:04;10.60;99.90
7163;DHT22;3623;47.098;15.446;2022-10-16T06:01:31;10.60;99.90
7163;DHT22;3623;47.098;15.446;2022-10-16T06:03:59;10.60;99.90
7163;DHT22;3623;47.098;15.446;2022-10-16T06:06:26;10.70;99.90
7163;DHT22;3623;47.098;15.446;2022-10-16T06:08:55;10.70;99.90
7163;DHT22;3623;47.098;15.446;2022-10-16T06:11:25;10.70;99.90
7163;DHT22;3623;47.098;15.446;2022-10-16T06:13:54;10.60;99.90
7163;DHT22;3623;47.098;15.446;2022-10-16T06:16:22;10.50;99.90
7163;DHT22;3623;47.098;15.446;2022-10-16T06:18:51;10.40;99.90
7163;DHT22;3623;47.098;15.446;2022-10-16T06:21:21;10.40;99.90
7163;DHT22;3623;47.098;15.446;2022-10-16T06:23:50;10.40;99.90
7163;DHT22;3623;47.098;15.446;2022-10-16T06:26:18;10.40;99.90
7163;DHT22;3623;47.098;15.446;2022-10-16T06:28:48;10.40;99.90
7163;DHT22;3623;47.098;15.446;2022-10-16T06:31:16;10.40;99.90
7163;DHT22;3623;47.098;15.446;2022-10-16T06:33:44;10.40;99.90
7163;DHT22;3623;47.098;15.446;2022-10-16T06:36:14;10.50;99.90
7163;DHT22;3623;47.098;15.446;2022-10-16T06:38:42;10.60;99.90
7163;DHT22;3623;47.098;15.446;2022-10-16T06:41:12;10.70;99.90
7163;DHT22;3623;47.098;15.446;2022-10-16T06:43:39;10.80;99.90
7163;DHT22;3623;47.098;15.446;2022-10-16T06:46:10;10.90;99.90
7163;DHT22;3623;47.098;15.446;2022-10-16T06:48:38;10.90;99.90
7163;DHT22;3623;47.098;15.446;2022-10-16T06:51:07;11.00;99.90
7163;DHT22;3623;47.098;15.446;2022-10-16T06:53:36;11.00;99.90
7163;DHT22;3623;47.098;15.446;2022-10-16T06:56:07;11.10;99.90
7163;DHT22;3623;47.098;15.446;2022-10-16T06:58:35;11.10;99.90
7163;DHT22;3623;47.098;15.446;2022-10-16T07:01:03;11.20;99.90
7163;DHT22;3623;47.098;15.446;2022-10-16T07:03:31;11.30;99.90
7163;DHT22;3623;47.098;15.446;2022-10-16T07:06:01;11.40;99.90
7163;DHT22;3623;47.098;15.446;2022-10-16T07:08:31;11.40;99.90
7163;DHT22;3623;47.098;15.446;2022-10-16T07:11:00;11.50;99.90
7163;DHT22;3623;47.098;15.446;2022-10-16T07:13:27;11.60;99.90
7163;DHT22;3623;47.098;15.446;2022-10-16T07:15:54;11.70;99.90
7163;DHT22;3623;47.098;15.446;2022-10-16T07:18:22;11.70;99.90
7163;DHT22;3623;47.098;15.446;2022-10-16T07:21:02;11.70;99.90
7163;DHT22;3623;47.098;15.446;2022-10-16T07:23:29;11.80;99.90
7163;DHT22;3623;47.098;15.446;2022-10-16T07:25:56;11.90;99.90
7163;DHT22;3623;47.098;15.446;2022-10-16T07:28:23;12.10;99.90
7163;DHT22;3623;47.098;15.446;2022-10-16T07:30:50;12.20;99.90
7163;DHT22;3623;47.098;15.446;2022-10-16T07:33:17;12.30;99.90
7163;DHT22;3623;47.098;15.446;2022-10-16T07:35:50;12.40;99.90
7163;DHT22;3623;47.098;15.446;2022-10-16T07:38:19;12.40;99.90
7163;DHT22;3623;47.098;15.446;2022-10-16T07:40:47;12.50;99.90
7163;DHT22;3623;47.098;15.446;2022-10-16T07:43:14;12.60;99.90
7163;DHT22;3623;47.098;15.446;2022-10-16T07:45:48;12.30;99.90
7163;DHT22;3623;47.098;15.446;2022-10-16T07:48:16;12.70;99.90
7163;DHT22;3623;47.098;15.446;2022-10-16T07:50:44;12.80;99.90
7163;DHT22;3623;47.098;15.446;2022-10-16T07:53:11;12.80;99.90
7163;DHT22;3623;47.098;15.446;2022-10-16T07:55:40;12.90;99.90
7163;DHT22;3623;47.098;15.446;2022-10-16T07:58:07;13.00;99.90
7163;DHT22;3623;47.098;15.446;2022-10-16T08:00:36;13.10;99.90
7163;DHT22;3623;47.098;15.446;2022-10-16T08:03:03;13.20;99.90
7163;DHT22;3623;47.098;15.446;2022-10-16T08:05:32;13.30;99.90
7163;DHT22;3623;47.098;15.446;2022-10-16T08:08:00;13.40;99.90
7163;DHT22;3623;47.098;15.446;2022-10-16T08:10:28;13.50;99.90
7163;DHT22;3623;47.098;15.446;2022-10-16T08:12:58;13.60;99.90
7163;DHT22;3623;47.098;15.446;2022-10-16T08:15:25;13.80;99.90
7163;DHT22;3623;47.098;15.446;2022-10-16T08:18:00;13.90;99.90
7163;DHT22;3623;47.098;15.446;2022-10-16T08:20:29;13.90;99.90
7163;DHT22;3623;47.098;15.446;2022-10-16T08:22:58;14.00;99.90
7163;DHT22;3623;47.098;15.446;2022-10-16T08:25:26;14.10;99.90
7163;DHT22;3623;47.098;15.446;2022-10-16T08:27:53;14.20;99.90
7163;DHT22;3623;47.098;15.446;2022-10-16T08:30:23;14.40;99.90
7163;DHT22;3623;47.098;15.446;2022-10-16T08:32:52;14.60;99.90
7163;DHT22;3623;47.098;15.446;2022-10-16T08:35:19;14.70;99.90
7163;DHT22;3623;47.098;15.446;2022-10-16T08:37:46;14.90;99.90
7163;DHT22;3623;47.098;15.446;2022-10-16T08:40:19;15.20;99.90
7163;DHT22;3623;47.098;15.446;2022-10-16T08:43:06;15.70;99.90
7163;DHT22;3623;47.098;15.446;2022-10-16T08:45:49;16.80;99.90
7163;DHT22;3623;47.098;15.446;2022-10-16T08:48:22;17.30;99.90
7163;DHT22;3623;47.098;15.446;2022-10-16T08:50:52;17.50;99.90
7163;DHT22;3623;47.098;15.446;2022-10-16T08:53:24;17.50;99.90
7163;DHT22;3623;47.098;15.446;2022-10-16T08:55:53;17.40;99.90
7163;DHT22;3623;47.098;15.446;2022-10-16T08:58:22;16.80;99.90
7163;DHT22;3623;47.098;15.446;2022-10-16T09:00:54;16.90;99.90
7163;DHT22;3623;47.098;15.446;2022-10-16T09:06:31;17.30;99.90
7163;DHT22;3623;47.098;15.446;2022-10-16T09:09:10;17.10;99.90
7163;DHT22;3623;47.098;15.446;2022-10-16T09:11:46;16.80;99.90
7163;DHT22;3623;47.098;15.446;2022-10-16T09:14:37;16.80;99.90
7163;DHT22;3623;47.098;15.446;2022-10-16T09:17:19;16.70;99.90
7163;DHT22;3623;47.098;15.446;2022-10-16T09:19:53;16.60;99.90
7163;DHT22;3623;47.098;15.446;2022-10-16T09:22:25;16.80;99.90
7163;DHT22;3623;47.098;15.446;2022-10-16T09:24:54;16.90;99.90
7163;DHT22;3623;47.098;15.446;2022-10-16T09:27:22;16.80;99.90
7163;DHT22;3623;47.098;15.446;2022-10-16T09:29:49;16.70;99.90
7163;DHT22;3623;47.098;15.446;2022-10-16T09:32:19;16.60;99.90
7163;DHT22;3623;47.098;15.446;2022-10-16T09:34:49;16.60;99.90
7163;DHT22;3623;47.098;15.446;2022-10-16T09:37:18;16.50;99.90
7163;DHT22;3623;47.098;15.446;2022-10-16T09:39:46;16.70;99.90
7163;DHT22;3623;47.098;15.446;2022-10-16T09:42:15;16.80;99.90
7163;DHT22;3623;47.098;15.446;2022-10-16T09:44:47;17.00;99.90
7163;DHT22;3623;47.098;15.446;2022-10-16T09:47:18;16.90;99.90
7163;DHT22;3623;47.098;15.446;2022-10-16T09:49:54;17.00;99.90
7163;DHT22;3623;47.098;15.446;2022-10-16T09:52:29;17.00;99.90
7163;DHT22;3623;47.098;15.446;2022-10-16T09:55:13;17.20;99.90
7163;DHT22;3623;47.098;15.446;2022-10-16T09:57:48;17.20;99.90
7163;DHT22;3623;47.098;15.446;2022-10-16T10:00:24;17.30;99.90
7163;DHT22;3623;47.098;15.446;2022-10-16T10:02:55;17.50;99.90
7163;DHT22;3623;47.098;15.446;2022-10-16T10:05:26;17.60;99.90
7163;DHT22;3623;47.098;15.446;2022-10-16T10:07:55;17.80;99.90
7163;DHT22;3623;47.098;15.446;2022-10-16T10:10:36;17.80;99.90
7163;DHT22;3623;47.098;15.446;2022-10-16T10:13:14;18.10;99.90
7163;DHT22;3623;47.098;15.446;2022-10-16T10:15:46;18.20;99.90
7163;DHT22;3623;47.098;15.446;2022-10-16T10:18:19;18.80;99.90
7163;DHT22;3623;47.098;15.446;2022-10-16T10:21:12;19.30;99.90
7163;DHT22;3623;47.098;15.446;2022-10-16T10:23:41;19.60;99.90
7163;DHT22;3623;47.098;15.446;2022-10-16T10:26:14;20.00;99.90
7163;DHT22;3623;47.098;15.446;2022-10-16T10:29:03;20.30;99.90
7163;DHT22;3623;47.098;15.446;2022-10-16T10:31:40;20.50;99.90
7163;DHT22;3623;47.098;15.446;2022-10-16T10:34:39;20.70;99.90
7163;DHT22;3623;47.098;15.446;2022-10-16T10:40:22;21.50;99.90
7163;DHT22;3623;47.098;15.446;2022-10-16T10:42:57;21.90;99.90
7163;DHT22;3623;47.098;15.446;2022-10-16T10:45:54;22.60;99.90
7163;DHT22;3623;47.098;15.446;2022-10-16T10:49:13;23.20;99.90
7163;DHT22;3623;47.098;15.446;2022-10-16T10:52:02;23.60;99.90
7163;DHT22;3623;47.098;15.446;2022-10-16T10:54:50;24.90;99.90
7163;DHT22;3623;47.098;15.446;2022-10-16T10:57:28;24.80;99.90
7163;DHT22;3623;47.098;15.446;2022-10-16T11:00:16;25.00;99.90
7163;DHT22;3623;47.098;15.446;2022-10-16T11:03:00;25.30;99.90
7163;DHT22;3623;47.098;15.446;2022-10-16T11:05:42;25.80;99.90
7163;DHT22;3623;47.098;15.446;2022-10-16T11:08:24;25.90;99.90
7163;DHT22;3623;47.098;15.446;2022-10-16T11:11:00;25.90;99.90
7163;DHT22;3623;47.098;15.446;2022-10-16T11:13:32;26.40;99.90
7163;DHT22;3623;47.098;15.446;2022-10-16T11:16:10;26.90;99.90
7163;DHT22;3623;47.098;15.446;2022-10-16T11:18:46;27.50;99.90
7163;DHT22;3623;47.098;15.446;2022-10-16T11:21:24;27.60;99.90
7163;DHT22;3623;47.098;15.446;2022-10-16T11:24:11;27.40;99.90
7163;DHT22;3623;47.098;15.446;2022-10-16T11:26:46;27.60;99.90
7163;DHT22;3623;47.098;15.446;2022-10-16T11:29:27;27.60;99.90
7163;DHT22;3623;47.098;15.446;2022-10-16T11:32:05;28.00;99.90
7163;DHT22;3623;47.098;15.446;2022-10-16T11:34:38;28.60;99.90
7163;DHT22;3623;47.098;15.446;2022-10-16T11:37:14;28.60;99.90
7163;DHT22;3623;47.098;15.446;2022-10-16T11:40:02;27.90;99.90
7163;DHT22;3623;47.098;15.446;2022-10-16T11:42:36;28.60;99.90
7163;DHT22;3623;47.098;15.446;2022-10-16T11:45:15;28.50;99.90
7163;DHT22;3623;47.098;15.446;2022-10-16T11:47:58;28.10;99.90
7163;DHT22;3623;47.098;15.446;2022-10-16T11:50:33;28.70;99.90
7163;DHT22;3623;47.098;15.446;2022-10-16T11:53:14;29.30;99.90
7163;DHT22;3623;47.098;15.446;2022-10-16T11:55:45;29.30;99.90
7163;DHT22;3623;47.098;15.446;2022-10-16T11:58:44;29.80;99.90
7163;DHT22;3623;47.098;15.446;2022-10-16T12:01:46;30.40;99.90
7163;DHT22;3623;47.098;15.446;2022-10-16T12:04:24;29.90;99.90
7163;DHT22;3623;47.098;15.446;2022-10-16T12:06:57;28.50;99.90
7163;DHT22;3623;47.098;15.446;2022-10-16T12:09:27;28.60;99.90
7163;DHT22;3623;47.098;15.446;2022-10-16T12:11:57;29.10;99.90
7163;DHT22;3623;47.098;15.446;2022-10-16T12:14:36;29.50;99.90
7163;DHT22;3623;47.098;15.446;2022-10-16T12:17:23;30.00;99.90
7163;DHT22;3623;47.098;15.446;2022-10-16T12:20:19;30.30;99.90
7163;DHT22;3623;47.098;15.446;2022-10-16T12:22:50;30.50;99.90
7163;DHT22;3623;47.098;15.446;2022-10-16T12:25:24;30.40;99.40
7163;DHT22;3623;47.098;15.446;2022-10-16T12:28:00;31.00;98.90
7163;DHT22;3623;47.098;15.446;2022-10-16T12:30:29;30.70;98.00
7163;DHT22;3623;47.098;15.446;2022-10-16T12:33:00;30.50;98.10
7163;DHT22;3623;47.098;15.446;2022-10-16T12:35:31;30.90;98.10
7163;DHT22;3623;47.098;15.446;2022-10-16T12:38:14;31.00;97.20
7163;DHT22;3623;47.098;15.446;2022-10-16T12:40:58;30.90;97.90
7163;DHT22;3623;47.098;15.446;2022-10-16T12:43:40;30.20;98.10
7163;DHT22;3623;47.098;15.446;2022-10-16T12:46:54;30.60;98.70
7163;DHT22;3623;47.098;15.446;2022-10-16T12:49:29;31.50;97.10
7163;DHT22;3623;47.098;15.446;2022-10-16T12:51:58;31.80;97.40
7163;DHT22;3623;47.098;15.446;2022-10-16T12:54:30;31.40;96.80
7163;DHT22;3623;47.098;15.446;2022-10-16T12:57:12;31.30;96.50
7163;DHT22;3623;47.098;15.446;2022-10-16T12:59:52;31.20;95.90
7163;DHT22;3623;47.098;15.446;2022-10-16T13:05:30;30.30;96.70
7163;DHT22;3623;47.098;15.446;2022-10-16T13:08:24;31.00;96.50
7163;DHT22;3623;47.098;15.446;2022-10-16T13:11:01;30.30;96.00
7163;DHT22;3623;47.098;15.446;2022-10-16T13:13:59;28.70;96.60
7163;DHT22;3623;47.098;15.446;2022-10-16T13:16:49;27.20;99.50
7163;DHT22;3623;47.098;15.446;2022-10-16T13:19:24;25.70;99.90
7163;DHT22;3623;47.098;15.446;2022-10-16T13:22:04;24.80;99.90
7163;DHT22;3623;47.098;15.446;2022-10-16T13:24:52;24.20;99.90
7163;DHT22;3623;47.098;15.446;2022-10-16T13:27:29;23.60;99.90
7163;DHT22;3623;47.098;15.446;2022-10-16T13:30:08;23.40;99.90
7163;DHT22;3623;47.098;15.446;2022-10-16T13:32:39;23.10;99.90
7163;DHT22;3623;47.098;15.446;2022-10-16T13:35:26;23.00;99.90
7163;DHT22;3623;47.098;15.446;2022-10-16T13:38:08;22.60;99.90
7163;DHT22;3623;47.098;15.446;2022-10-16T13:40:48;22.50;99.90
7163;DHT22;3623;47.098;15.446;2022-10-16T13:43:41;22.20;99.90
7163;DHT22;3623;47.098;15.446;2022-10-16T13:46:27;22.10;99.90
7163;DHT22;3623;47.098;15.446;2022-10-16T13:49:02;22.20;99.90
7163;DHT22;3623;47.098;15.446;2022-10-16T13:51:33;22.00;99.90
7163;DHT22;3623;47.098;15.446;2022-10-16T13:54:00;21.90;99.90
7163;DHT22;3623;47.098;15.446;2022-10-16T13:56:28;21.70;99.90
7163;DHT22;3623;47.098;15.446;2022-10-16T13:59:00;21.70;99.90
7163;DHT22;3623;47.098;15.446;2022-10-16T14:01:29;21.40;99.90
7163;DHT22;3623;47.098;15.446;2022-10-16T14:07:00;21.30;99.90
7163;DHT22;3623;47.098;15.446;2022-10-16T14:09:41;21.10;99.90
7163;DHT22;3623;47.098;15.446;2022-10-16T14:12:11;21.00;99.90
7163;DHT22;3623;47.098;15.446;2022-10-16T14:14:41;20.90;99.90
7163;DHT22;3623;47.098;15.446;2022-10-16T14:17:15;20.90;99.90
7163;DHT22;3623;47.098;15.446;2022-10-16T14:20:20;20.90;99.90
7163;DHT22;3623;47.098;15.446;2022-10-16T14:23:18;21.10;99.90
7163;DHT22;3623;47.098;15.446;2022-10-16T14:29:23;20.50;99.90
7163;DHT22;3623;47.098;15.446;2022-10-16T14:32:04;20.60;99.90
7163;DHT22;3623;47.098;15.446;2022-10-16T14:34:36;20.10;99.90
7163;DHT22;3623;47.098;15.446;2022-10-16T14:37:24;20.10;99.90
7163;DHT22;3623;47.098;15.446;2022-10-16T14:40:13;20.20;99.90
7163;DHT22;3623;47.098;15.446;2022-10-16T14:42:46;20.20;99.90
7163;DHT22;3623;47.098;15.446;2022-10-16T14:45:33;20.30;99.90
7163;DHT22;3623;47.098;15.446;2022-10-16T14:48:18;20.10;99.90
7163;DHT22;3623;47.098;15.446;2022-10-16T14:50:48;19.80;99.90
7163;DHT22;3623;47.098;15.446;2022-10-16T14:53:37;19.80;99.90
7163;DHT22;3623;47.098;15.446;2022-10-16T14:56:30;19.70;99.90
7163;DHT22;3623;47.098;15.446;2022-10-16T14:59:29;20.20;99.90
7163;DHT22;3623;47.098;15.446;2022-10-16T15:02:06;19.60;99.90
7163;DHT22;3623;47.098;15.446;2022-10-16T15:04:39;19.50;99.90
7163;DHT22;3623;47.098;15.446;2022-10-16T15:07:25;19.40;99.90
7163;DHT22;3623;47.098;15.446;2022-10-16T15:10:00;19.50;99.90
7163;DHT22;3623;47.098;15.446;2022-10-16T15:12:30;19.30;99.90
7163;DHT22;3623;47.098;15.446;2022-10-16T15:15:10;19.30;99.90
7163;DHT22;3623;47.098;15.446;2022-10-16T15:17:45;19.50;99.90
7163;DHT22;3623;47.098;15.446;2022-10-16T15:20:14;19.10;99.90
7163;DHT22;3623;47.098;15.446;2022-10-16T15:23:14;18.90;99.90
7163;DHT22;3623;47.098;15.446;2022-10-16T15:25:57;19.00;99.90
7163;DHT22;3623;47.098;15.446;2022-10-16T15:28:28;19.10;99.90
7163;DHT22;3623;47.098;15.446;2022-10-16T15:30:56;19.00;99.90
7163;DHT22;3623;47.098;15.446;2022-10-16T15:33:27;18.90;99.90
7163;DHT22;3623;47.098;15.446;2022-10-16T15:36:11;19.00;99.90
7163;DHT22;3623;47.098;15.446;2022-10-16T15:38:38;18.90;99.90
7163;DHT22;3623;47.098;15.446;2022-10-16T15:41:07;18.70;99.90
7163;DHT22;3623;47.098;15.446;2022-10-16T15:43:34;18.70;99.90
7163;DHT22;3623;47.098;15.446;2022-10-16T15:46:05;18.60;99.90
7163;DHT22;3623;47.098;15.446;2022-10-16T15:48:35;18.40;99.90
7163;DHT22;3623;47.098;15.446;2022-10-16T15:51:05;18.30;99.90
7163;DHT22;3623;47.098;15.446;2022-10-16T15:53:33;18.20;99.90
7163;DHT22;3623;47.098;15.446;2022-10-16T15:56:01;18.20;99.90
7163;DHT22;3623;47.098;15.446;2022-10-16T15:58:31;18.10;99.90
7163;DHT22;3623;47.098;15.446;2022-10-16T16:00:59;18.10;99.90
7163;DHT22;3623;47.098;15.446;2022-10-16T16:03:28;17.90;99.90
7163;DHT22;3623;47.098;15.446;2022-10-16T16:05:55;17.80;99.90
7163;DHT22;3623;47.098;15.446;2022-10-16T16:08:23;17.70;99.90
7163;DHT22;3623;47.098;15.446;2022-10-16T16:10:59;17.60;99.90
7163;DHT22;3623;47.098;15.446;2022-10-16T16:13:27;17.50;99.90
7163;DHT22;3623;47.098;15.446;2022-10-16T16:15:56;17.40;99.90
7163;DHT22;3623;47.098;15.446;2022-10-16T16:18:23;17.30;99.90
7163;DHT22;3623;47.098;15.446;2022-10-16T16:20:50;17.30;99.90
7163;DHT22;3623;47.098;15.446;2022-10-16T16:23:18;17.30;99.90
7163;DHT22;3623;47.098;15.446;2022-10-16T16:26:03;17.40;99.90
7163;DHT22;3623;47.098;15.446;2022-10-16T16:28:30;17.30;99.90
7163;DHT22;3623;47.098;15.446;2022-10-16T16:30:58;17.40;99.90
7163;DHT22;3623;47.098;15.446;2022-10-16T16:33:25;17.30;99.90
7163;DHT22;3623;47.098;15.446;2022-10-16T16:35:57;17.10;99.90
7163;DHT22;3623;47.098;15.446;2022-10-16T16:38:24;17.00;99.90